PWSweather.com
Personal Weather Stations
Station Observations
KMNGREYC2
Grey Cloud Island, Grey Cloud Island, MN 55071

Grey Cloud IslandGrey Cloud Island, MN 55071

Lat: 44.799333, Lon: -92.987851

Elevation: 700

Station Type: Davis VP2

www.jagielski.com/weather/conditions.htm

High Low Average
Temperature -1.0°F-18.3°C -13.2°F-25.1°C -7.3°F-21.8°C
Dew Point -13.3°F-25.2°C -19.1°F-28.4°C -15.4°F-26.3°C
Winds 8.0 mph 12.9 kmh Calm Calm 2.0 mph WNW3.2 kmh WNW
Wind Gusts 11.0 mph17.7 kmh 1.0 mph1.6 kmh 5.0 mph8.0 kmh
Humidity 75% 54% 67%
Pressure 30.83 in1044.0 mb 30.68 in1038.9 mb -
Precipitation 0.00 in0.0 mm - -
Hour Temp Dew Point Humidity Winds Wind Gusts Pressure Precip Precip Rate Daily Precip Total
12:00 AM -6.1°F-21.2°C -13.6°F-25.3°C 69% 2.0 mph NW3.2 kmh NW 2.0 mph3.2 kmh 30.69 in1039.3 mb 0.00 in0.0 mm 0.00 in0.0 mm 0.00 in0.0 mm
12:15 AM -6.2°F-21.2°C -13.4°F-25.2°C 70% 2.0 mph NW3.2 kmh NW 7.0 mph11.3 kmh 30.68 in1038.9 mb 0.00 in0.0 mm 0.00 in0.0 mm 0.00 in0.0 mm
12:30 AM -6.2°F-21.2°C -13.4°F-25.2°C 70% 4.0 mph NW6.4 kmh NW 4.0 mph6.4 kmh 30.69 in1039.3 mb 0.00 in0.0 mm 0.00 in0.0 mm 0.00 in0.0 mm
12:45 AM -6.2°F-21.2°C -13.4°F-25.2°C 70% Calm Calm 6.0 mph9.7 kmh 30.69 in1039.3 mb 0.00 in0.0 mm 0.00 in0.0 mm 0.00 in0.0 mm
01:00 AM -6.3°F-21.3°C -13.5°F-25.3°C 70% Calm Calm 2.0 mph3.2 kmh 30.69 in1039.3 mb 0.00 in0.0 mm 0.00 in0.0 mm 0.00 in0.0 mm
01:15 AM -6.3°F-21.3°C -13.5°F-25.3°C 70% Calm Calm 5.0 mph8.0 kmh 30.68 in1038.9 mb 0.00 in0.0 mm 0.00 in0.0 mm 0.00 in0.0 mm
01:30 AM -6.4°F-21.3°C -13.6°F-25.3°C 70% Calm Calm 2.0 mph3.2 kmh 30.68 in1038.9 mb 0.00 in0.0 mm 0.00 in0.0 mm 0.00 in0.0 mm
01:45 AM -6.4°F-21.3°C -13.3°F-25.2°C 71% Calm Calm 4.0 mph6.4 kmh 30.68 in1038.9 mb 0.00 in0.0 mm 0.00 in0.0 mm 0.00 in0.0 mm
02:00 AM -6.5°F-21.4°C -13.4°F-25.2°C 71% 2.0 mph N3.2 kmh N 2.0 mph3.2 kmh 30.69 in1039.3 mb 0.00 in0.0 mm 0.00 in0.0 mm 0.00 in0.0 mm
02:15 AM -6.6°F-21.4°C -13.5°F-25.3°C 71% 1.0 mph N1.6 kmh N 4.0 mph6.4 kmh 30.70 in1039.6 mb 0.00 in0.0 mm 0.00 in0.0 mm 0.00 in0.0 mm
02:30 AM -6.8°F-21.6°C -13.7°F-25.4°C 71% Calm Calm 2.0 mph3.2 kmh 30.70 in1039.6 mb 0.00 in0.0 mm 0.00 in0.0 mm 0.00 in0.0 mm
02:45 AM -7.0°F-21.7°C -13.9°F-25.5°C 71% 2.0 mph NW3.2 kmh NW 6.0 mph9.7 kmh 30.71 in1040.0 mb 0.00 in0.0 mm 0.00 in0.0 mm 0.00 in0.0 mm
03:00 AM -7.2°F-21.8°C -14.1°F-25.6°C 71% 1.0 mph NW1.6 kmh NW 4.0 mph6.4 kmh 30.72 in1040.3 mb 0.00 in0.0 mm 0.00 in0.0 mm 0.00 in0.0 mm
03:15 AM -7.4°F-21.9°C -14.3°F-25.7°C 71% Calm Calm 5.0 mph8.0 kmh 30.72 in1040.3 mb 0.00 in0.0 mm 0.00 in0.0 mm 0.00 in0.0 mm
03:30 AM -7.5°F-21.9°C -14.1°F-25.6°C 72% Calm Calm 3.0 mph4.8 kmh 30.72 in1040.3 mb 0.00 in0.0 mm 0.00 in0.0 mm 0.00 in0.0 mm
03:45 AM -7.7°F-22.1°C -14.3°F-25.7°C 72% 2.0 mph NW3.2 kmh NW 5.0 mph8.0 kmh 30.72 in1040.3 mb 0.00 in0.0 mm 0.00 in0.0 mm 0.00 in0.0 mm
04:00 AM -8.0°F-22.2°C -14.6°F-25.9°C 72% 2.0 mph NW3.2 kmh NW 4.0 mph6.4 kmh 30.72 in1040.3 mb 0.00 in0.0 mm 0.00 in0.0 mm 0.00 in0.0 mm
04:15 AM -8.5°F-22.5°C -15.1°F-26.2°C 72% 3.0 mph NW4.8 kmh NW 5.0 mph8.0 kmh 30.72 in1040.3 mb 0.00 in0.0 mm 0.00 in0.0 mm 0.00 in0.0 mm
04:30 AM -8.8°F-22.7°C -15.1°F-26.2°C 73% Calm Calm 6.0 mph9.7 kmh 30.72 in1040.3 mb 0.00 in0.0 mm 0.00 in0.0 mm 0.00 in0.0 mm
04:45 AM -8.9°F-22.7°C -15.2°F-26.2°C 73% Calm Calm 6.0 mph9.7 kmh 30.72 in1040.3 mb 0.00 in0.0 mm 0.00 in0.0 mm 0.00 in0.0 mm
05:00 AM -9.3°F-22.9°C -15.6°F-26.4°C 73% Calm Calm 1.0 mph1.6 kmh 30.72 in1040.3 mb 0.00 in0.0 mm 0.00 in0.0 mm 0.00 in0.0 mm
05:15 AM -9.6°F-23.1°C -15.9°F-26.6°C 73% 2.0 mph NW3.2 kmh NW 5.0 mph8.0 kmh 30.72 in1040.3 mb 0.00 in0.0 mm 0.00 in0.0 mm 0.00 in0.0 mm
05:30 AM -9.9°F-23.3°C -15.9°F-26.6°C 74% Calm Calm 1.0 mph1.6 kmh 30.72 in1040.3 mb 0.00 in0.0 mm 0.00 in0.0 mm 0.00 in0.0 mm
05:45 AM -10.0°F-23.3°C -16.0°F-26.7°C 74% 3.0 mph NNW4.8 kmh NNW 5.0 mph8.0 kmh 30.73 in1040.6 mb 0.00 in0.0 mm 0.00 in0.0 mm 0.00 in0.0 mm
06:00 AM -10.3°F-23.5°C -16.3°F-26.8°C 74% 4.0 mph N6.4 kmh N 4.0 mph6.4 kmh 30.73 in1040.6 mb 0.00 in0.0 mm 0.00 in0.0 mm 0.00 in0.0 mm
06:15 AM -10.6°F-23.7°C -16.6°F-27.0°C 74% 3.0 mph NW4.8 kmh NW 8.0 mph12.9 kmh 30.74 in1041.0 mb 0.00 in0.0 mm 0.00 in0.0 mm 0.00 in0.0 mm
06:30 AM -11.0°F-23.9°C -17.2°F-27.3°C 73% 3.0 mph N4.8 kmh N 4.0 mph6.4 kmh 30.74 in1041.0 mb 0.00 in0.0 mm 0.00 in0.0 mm 0.00 in0.0 mm
06:45 AM -11.3°F-24.1°C -17.5°F-27.5°C 73% 2.0 mph N3.2 kmh N 8.0 mph12.9 kmh 30.74 in1041.0 mb 0.00 in0.0 mm 0.00 in0.0 mm 0.00 in0.0 mm
07:00 AM -11.7°F-24.3°C -17.7°F-27.6°C 74% Calm Calm 3.0 mph4.8 kmh 30.75 in1041.3 mb 0.00 in0.0 mm 0.00 in0.0 mm 0.00 in0.0 mm
07:15 AM -12.0°F-24.4°C -18.2°F-27.9°C 73% 4.0 mph N6.4 kmh N 9.0 mph14.5 kmh 30.75 in1041.3 mb 0.00 in0.0 mm 0.00 in0.0 mm 0.00 in0.0 mm
07:30 AM -12.4°F-24.7°C -18.3°F-27.9°C 74% 2.0 mph NNW3.2 kmh NNW 3.0 mph4.8 kmh 30.76 in1041.7 mb 0.00 in0.0 mm 0.00 in0.0 mm 0.00 in0.0 mm
07:45 AM -12.6°F-24.8°C -18.5°F-28.1°C 74% 2.0 mph NW3.2 kmh NW 9.0 mph14.5 kmh 30.77 in1042.0 mb 0.00 in0.0 mm 0.00 in0.0 mm 0.00 in0.0 mm
08:00 AM -12.9°F-24.9°C -18.8°F-28.2°C 74% Calm Calm 1.0 mph1.6 kmh 30.77 in1042.0 mb 0.00 in0.0 mm 0.00 in0.0 mm 0.00 in0.0 mm
08:15 AM -13.2°F-25.1°C -19.1°F-28.4°C 74% Calm Calm 7.0 mph11.3 kmh 30.78 in1042.3 mb 0.00 in0.0 mm 0.00 in0.0 mm 0.00 in0.0 mm
08:30 AM -13.2°F-25.1°C -18.8°F-28.2°C 75% 3.0 mph NW4.8 kmh NW 4.0 mph6.4 kmh 30.78 in1042.3 mb 0.00 in0.0 mm 0.00 in0.0 mm 0.00 in0.0 mm
08:45 AM -13.2°F-25.1°C -18.8°F-28.2°C 75% 2.0 mph NW3.2 kmh NW 6.0 mph9.7 kmh 30.79 in1042.7 mb 0.00 in0.0 mm 0.00 in0.0 mm 0.00 in0.0 mm
09:00 AM -13.0°F-25.0°C -18.7°F-28.2°C 75% 1.0 mph NW1.6 kmh NW 3.0 mph4.8 kmh 30.80 in1043.0 mb 0.00 in0.0 mm 0.00 in0.0 mm 0.00 in0.0 mm
09:15 AM -12.5°F-24.7°C -18.2°F-27.9°C 75% Calm Calm 9.0 mph14.5 kmh 30.80 in1043.0 mb 0.00 in0.0 mm 0.00 in0.0 mm 0.00 in0.0 mm
09:30 AM -12.2°F-24.6°C -18.1°F-27.8°C 74% Calm Calm 2.0 mph3.2 kmh 30.81 in1043.3 mb 0.00 in0.0 mm 0.00 in0.0 mm 0.00 in0.0 mm
09:45 AM -11.9°F-24.4°C -18.1°F-27.8°C 73% 1.0 mph N1.6 kmh N 5.0 mph8.0 kmh 30.81 in1043.3 mb 0.00 in0.0 mm 0.00 in0.0 mm 0.00 in0.0 mm
10:00 AM -11.3°F-24.1°C -17.5°F-27.5°C 73% 1.0 mph NW1.6 kmh NW 6.0 mph9.7 kmh 30.82 in1043.7 mb 0.00 in0.0 mm 0.00 in0.0 mm 0.00 in0.0 mm
10:15 AM -10.8°F-23.8°C -17.3°F-27.4°C 72% 2.0 mph NW3.2 kmh NW 6.0 mph9.7 kmh 30.82 in1043.7 mb 0.00 in0.0 mm 0.00 in0.0 mm 0.00 in0.0 mm
10:30 AM -9.9°F-23.3°C -16.7°F-27.1°C 71% 1.0 mph N1.6 kmh N 4.0 mph6.4 kmh 30.83 in1044.0 mb 0.00 in0.0 mm 0.00 in0.0 mm 0.00 in0.0 mm
10:45 AM -8.6°F-22.6°C -16.3°F-26.8°C 68% 2.0 mph WNW3.2 kmh WNW 9.0 mph14.5 kmh 30.83 in1044.0 mb 0.00 in0.0 mm 0.00 in0.0 mm 0.00 in0.0 mm
11:00 AM -7.3°F-21.8°C -15.6°F-26.4°C 66% 1.0 mph WNW1.6 kmh WNW 1.0 mph1.6 kmh 30.82 in1043.7 mb 0.00 in0.0 mm 0.00 in0.0 mm 0.00 in0.0 mm
11:15 AM -6.4°F-21.3°C -15.4°F-26.3°C 64% 1.0 mph WNW1.6 kmh WNW 7.0 mph11.3 kmh 30.82 in1043.7 mb 0.00 in0.0 mm 0.00 in0.0 mm 0.00 in0.0 mm
11:30 AM -6.1°F-21.2°C -15.7°F-26.5°C 62% 3.0 mph WNW4.8 kmh WNW 3.0 mph4.8 kmh 30.82 in1043.7 mb 0.00 in0.0 mm 0.00 in0.0 mm 0.00 in0.0 mm
11:45 AM -6.0°F-21.1°C -15.9°F-26.6°C 61% 1.0 mph NW1.6 kmh NW 5.0 mph8.0 kmh 30.82 in1043.7 mb 0.00 in0.0 mm 0.00 in0.0 mm 0.00 in0.0 mm
12:00 PM -5.5°F-20.8°C -15.2°F-26.2°C 62% 5.0 mph WNW8.0 kmh WNW 5.0 mph8.0 kmh 30.81 in1043.3 mb 0.00 in0.0 mm 0.00 in0.0 mm 0.00 in0.0 mm
12:15 PM -5.7°F-20.9°C -16.0°F-26.7°C 60% 3.0 mph NW4.8 kmh NW 9.0 mph14.5 kmh 30.80 in1043.0 mb 0.00 in0.0 mm 0.00 in0.0 mm 0.00 in0.0 mm
12:30 PM -5.9°F-21.1°C -15.9°F-26.6°C 61% 2.0 mph N3.2 kmh N 6.0 mph9.7 kmh 30.80 in1043.0 mb 0.00 in0.0 mm 0.00 in0.0 mm 0.00 in0.0 mm
12:45 PM -5.5°F-20.8°C -15.2°F-26.2°C 62% 3.0 mph NW4.8 kmh NW 10.0 mph16.1 kmh 30.80 in1043.0 mb 0.00 in0.0 mm 0.00 in0.0 mm 0.00 in0.0 mm
01:00 PM -4.4°F-20.2°C -14.4°F-25.8°C 61% 4.0 mph NW6.4 kmh NW 9.0 mph14.5 kmh 30.79 in1042.7 mb 0.00 in0.0 mm 0.00 in0.0 mm 0.00 in0.0 mm
01:15 PM -3.4°F-19.7°C -13.8°F-25.4°C 60% 4.0 mph WNW6.4 kmh WNW 9.0 mph14.5 kmh 30.78 in1042.3 mb 0.00 in0.0 mm 0.00 in0.0 mm 0.00 in0.0 mm
01:30 PM -3.0°F-19.4°C -13.8°F-25.4°C 59% 3.0 mph W4.8 kmh W 3.0 mph4.8 kmh 30.78 in1042.3 mb 0.00 in0.0 mm 0.00 in0.0 mm 0.00 in0.0 mm
01:45 PM -2.6°F-19.2°C -13.4°F-25.2°C 59% 4.0 mph NW6.4 kmh NW 8.0 mph12.9 kmh 30.77 in1042.0 mb 0.00 in0.0 mm 0.00 in0.0 mm 0.00 in0.0 mm
02:00 PM -2.1°F-18.9°C -13.6°F-25.3°C 57% 7.0 mph NW11.3 kmh NW 7.0 mph11.3 kmh 30.77 in1042.0 mb 0.00 in0.0 mm 0.00 in0.0 mm 0.00 in0.0 mm
02:15 PM -1.8°F-18.8°C -13.7°F-25.4°C 56% 3.0 mph WNW4.8 kmh WNW 10.0 mph16.1 kmh 30.77 in1042.0 mb 0.00 in0.0 mm 0.00 in0.0 mm 0.00 in0.0 mm
02:30 PM -1.5°F-18.6°C -13.7°F-25.4°C 55% 8.0 mph NW12.9 kmh NW 11.0 mph17.7 kmh 30.77 in1042.0 mb 0.00 in0.0 mm 0.00 in0.0 mm 0.00 in0.0 mm
02:45 PM -1.4°F-18.6°C -13.6°F-25.3°C 55% 2.0 mph W3.2 kmh W 11.0 mph17.7 kmh 30.77 in1042.0 mb 0.00 in0.0 mm 0.00 in0.0 mm 0.00 in0.0 mm
03:00 PM -1.0°F-18.3°C -13.3°F-25.2°C 55% 3.0 mph WNW4.8 kmh WNW 6.0 mph9.7 kmh 30.77 in1042.0 mb 0.00 in0.0 mm 0.00 in0.0 mm 0.00 in0.0 mm
03:15 PM -1.4°F-18.6°C -14.0°F-25.6°C 54% 4.0 mph NW6.4 kmh NW 9.0 mph14.5 kmh 30.77 in1042.0 mb 0.00 in0.0 mm 0.00 in0.0 mm 0.00 in0.0 mm
03:30 PM -1.6°F-18.7°C -13.8°F-25.4°C 55% 3.0 mph W4.8 kmh W 5.0 mph8.0 kmh 30.77 in1042.0 mb 0.00 in0.0 mm 0.00 in0.0 mm 0.00 in0.0 mm
03:45 PM -2.1°F-18.9°C -13.9°F-25.5°C 56% 2.0 mph WNW3.2 kmh WNW 7.0 mph11.3 kmh 30.77 in1042.0 mb 0.00 in0.0 mm 0.00 in0.0 mm 0.00 in0.0 mm
04:00 PM -2.6°F-19.2°C -13.7°F-25.4°C 58% 4.0 mph WSW6.4 kmh WSW 4.0 mph6.4 kmh 30.77 in1042.0 mb 0.00 in0.0 mm 0.00 in0.0 mm 0.00 in0.0 mm
04:15 PM -3.3°F-19.6°C -14.4°F-25.8°C 58% 3.0 mph NW4.8 kmh NW 7.0 mph11.3 kmh 30.77 in1042.0 mb 0.00 in0.0 mm 0.00 in0.0 mm 0.00 in0.0 mm
04:30 PM -3.9°F-19.9°C -14.6°F-25.9°C 59% 3.0 mph W4.8 kmh W 4.0 mph6.4 kmh 30.77 in1042.0 mb 0.00 in0.0 mm 0.00 in0.0 mm 0.00 in0.0 mm
04:45 PM -4.7°F-20.4°C -15.0°F-26.1°C 60% 1.0 mph W1.6 kmh W 8.0 mph12.9 kmh 30.78 in1042.3 mb 0.00 in0.0 mm 0.00 in0.0 mm 0.00 in0.0 mm
05:00 PM -5.3°F-20.7°C -15.3°F-26.3°C 61% 1.0 mph WSW1.6 kmh WSW 3.0 mph4.8 kmh 30.78 in1042.3 mb 0.00 in0.0 mm 0.00 in0.0 mm 0.00 in0.0 mm
05:15 PM -5.5°F-20.8°C -15.2°F-26.2°C 62% Calm Calm 6.0 mph9.7 kmh 30.78 in1042.3 mb 0.00 in0.0 mm 0.00 in0.0 mm 0.00 in0.0 mm
05:30 PM -5.5°F-20.8°C -15.2°F-26.2°C 62% Calm Calm 3.0 mph4.8 kmh 30.78 in1042.3 mb 0.00 in0.0 mm 0.00 in0.0 mm 0.00 in0.0 mm
05:45 PM -7.0°F-21.7°C -15.7°F-26.5°C 65% 1.0 mph W1.6 kmh W 7.0 mph11.3 kmh 30.78 in1042.3 mb 0.00 in0.0 mm 0.00 in0.0 mm 0.00 in0.0 mm
06:00 PM -7.4°F-21.9°C -15.7°F-26.5°C 66% 2.0 mph W3.2 kmh W 6.0 mph9.7 kmh 30.78 in1042.3 mb 0.00 in0.0 mm 0.00 in0.0 mm 0.00 in0.0 mm
06:15 PM -7.9°F-22.2°C -15.9°F-26.6°C 67% 1.0 mph WSW1.6 kmh WSW 8.0 mph12.9 kmh 30.78 in1042.3 mb 0.00 in0.0 mm 0.00 in0.0 mm 0.00 in0.0 mm
06:30 PM -8.1°F-22.3°C -15.8°F-26.6°C 68% 2.0 mph WSW3.2 kmh WSW 2.0 mph3.2 kmh 30.79 in1042.7 mb 0.00 in0.0 mm 0.00 in0.0 mm 0.00 in0.0 mm
06:45 PM -8.6°F-22.6°C -16.3°F-26.8°C 68% 3.0 mph WSW4.8 kmh WSW 7.0 mph11.3 kmh 30.79 in1042.7 mb 0.00 in0.0 mm 0.00 in0.0 mm 0.00 in0.0 mm
07:00 PM -8.8°F-22.7°C -16.2°F-26.8°C 69% Calm Calm 2.0 mph3.2 kmh 30.79 in1042.7 mb 0.00 in0.0 mm 0.00 in0.0 mm 0.00 in0.0 mm
07:15 PM -9.0°F-22.8°C -16.1°F-26.7°C 70% 1.0 mph WNW1.6 kmh WNW 5.0 mph8.0 kmh 30.79 in1042.7 mb 0.00 in0.0 mm 0.00 in0.0 mm 0.00 in0.0 mm
07:30 PM -9.3°F-22.9°C -16.4°F-26.9°C 70% Calm Calm 3.0 mph4.8 kmh 30.79 in1042.7 mb 0.00 in0.0 mm 0.00 in0.0 mm 0.00 in0.0 mm
07:45 PM -9.6°F-23.1°C -16.4°F-26.9°C 71% 1.0 mph WNW1.6 kmh WNW 6.0 mph9.7 kmh 30.79 in1042.7 mb 0.00 in0.0 mm 0.00 in0.0 mm 0.00 in0.0 mm
08:00 PM -9.8°F-23.2°C -16.6°F-27.0°C 71% 3.0 mph WNW4.8 kmh WNW 6.0 mph9.7 kmh 30.79 in1042.7 mb 0.00 in0.0 mm 0.00 in0.0 mm 0.00 in0.0 mm
08:15 PM -9.9°F-23.3°C -16.7°F-27.1°C 71% Calm Calm 8.0 mph12.9 kmh 30.79 in1042.7 mb 0.00 in0.0 mm 0.00 in0.0 mm 0.00 in0.0 mm
08:30 PM -10.1°F-23.4°C -16.6°F-27.0°C 72% Calm Calm 2.0 mph3.2 kmh 30.79 in1042.7 mb 0.00 in0.0 mm 0.00 in0.0 mm 0.00 in0.0 mm
08:45 PM -10.2°F-23.4°C -16.7°F-27.1°C 72% 1.0 mph W1.6 kmh W 6.0 mph9.7 kmh 30.79 in1042.7 mb 0.00 in0.0 mm 0.00 in0.0 mm 0.00 in0.0 mm
09:00 PM -10.3°F-23.5°C -16.8°F-27.1°C 72% Calm Calm 1.0 mph1.6 kmh 30.79 in1042.7 mb 0.00 in0.0 mm 0.00 in0.0 mm 0.00 in0.0 mm
09:15 PM -10.4°F-23.6°C -16.9°F-27.2°C 72% 1.0 mph W1.6 kmh W 7.0 mph11.3 kmh 30.79 in1042.7 mb 0.00 in0.0 mm 0.00 in0.0 mm 0.00 in0.0 mm
09:30 PM -10.6°F-23.7°C -16.8°F-27.1°C 73% Calm Calm 2.0 mph3.2 kmh 30.79 in1042.7 mb 0.00 in0.0 mm 0.00 in0.0 mm 0.00 in0.0 mm
09:45 PM -10.6°F-23.7°C -16.8°F-27.1°C 73% Calm Calm 4.0 mph6.4 kmh 30.79 in1042.7 mb 0.00 in0.0 mm 0.00 in0.0 mm 0.00 in0.0 mm
10:00 PM -10.7°F-23.7°C -16.9°F-27.2°C 73% Calm Calm 3.0 mph4.8 kmh 30.80 in1043.0 mb 0.00 in0.0 mm 0.00 in0.0 mm 0.00 in0.0 mm
10:15 PM -10.8°F-23.8°C -16.8°F-27.1°C 74% Calm Calm 4.0 mph6.4 kmh 30.79 in1042.7 mb 0.00 in0.0 mm 0.00 in0.0 mm 0.00 in0.0 mm
10:30 PM -10.8°F-23.8°C -16.8°F-27.1°C 74% Calm Calm 6.0 mph9.7 kmh 30.79 in1042.7 mb 0.00 in0.0 mm 0.00 in0.0 mm 0.00 in0.0 mm
10:45 PM -10.8°F-23.8°C -16.5°F-26.9°C 75% 2.0 mph WSW3.2 kmh WSW 6.0 mph9.7 kmh 30.80 in1043.0 mb 0.00 in0.0 mm 0.00 in0.0 mm 0.00 in0.0 mm
11:00 PM -10.8°F-23.8°C -16.5°F-26.9°C 75% 4.0 mph WNW6.4 kmh WNW 7.0 mph11.3 kmh 30.80 in1043.0 mb 0.00 in0.0 mm 0.00 in0.0 mm 0.00 in0.0 mm
11:15 PM -10.7°F-23.7°C -16.4°F-26.9°C 75% 1.0 mph WNW1.6 kmh WNW 7.0 mph11.3 kmh 30.80 in1043.0 mb 0.00 in0.0 mm 0.00 in0.0 mm 0.00 in0.0 mm
11:30 PM -10.7°F-23.7°C -16.2°F-26.8°C 76% 1.0 mph WNW1.6 kmh WNW 1.0 mph1.6 kmh 30.80 in1043.0 mb 0.00 in0.0 mm 0.00 in0.0 mm 0.00 in0.0 mm
11:45 PM -10.7°F-23.7°C -16.2°F-26.8°C 76% 2.0 mph WNW3.2 kmh WNW 7.0 mph11.3 kmh 30.80 in1043.0 mb 0.00 in0.0 mm 0.00 in0.0 mm 0.00 in0.0 mm